Time;durP1;ratioP1;P1;durP2;ratioP2;P2;SDS_P1;SDS_P2;PMS_P1;PMS_P2;Temp;Humidity;BMP_temperature;BMP_pressure;BME280_temperature;BME280_humidity;BME280_pressure;Samples;Min_cycle;Max_cycle;Signal;HPM_P1;HPM_P2
2024/04/13 00:00:45;;;;;;;14.20;10.20;;;;;;;14.20;70.43;101795.96;108661;1259;139185;-64
2024/04/13 00:03:31;;;;;;;18.00;9.80;;;;;;;14.15;70.36;101792.33;108803;1260;61714;-65
2024/04/13 00:05:58;;;;;;;18.30;10.70;;;;;;;14.10;70.29;101792.89;108654;1260;138882;-65
2024/04/13 00:08:25;;;;;;;15.20;10.00;;;;;;;14.03;70.19;101795.52;108822;1260;67299;-66
2024/04/13 00:10:52;;;;;;;14.90;9.90;;;;;;;13.90;70.00;101790.73;108693;1260;139295;-65
2024/04/13 00:13:19;;;;;;;14.60;9.40;;;;;;;13.77;70.10;101789.33;108794;1260;59796;-66
2024/04/13 00:15:55;;;;;;;13.80;9.50;;;;;;;13.67;70.03;101788.67;108801;1260;59908;-66
2024/04/13 00:18:22;;;;;;;17.00;9.80;;;;;;;13.52;69.93;101791.79;108645;1260;138775;-67
2024/04/13 00:20:48;;;;;;;16.20;9.20;;;;;;;13.38;70.10;101786.97;108708;1260;65757;-66
2024/04/13 00:23:15;;;;;;;13.90;9.00;;;;;;;13.25;70.09;101783.50;108685;1260;138549;-67
2024/04/13 00:25:42;;;;;;;12.00;7.40;;;;;;;13.11;70.19;101779.92;108793;1260;60302;-67
2024/04/13 00:28:09;;;;;;;12.70;8.20;;;;;;;12.98;70.28;101781.46;108796;1260;61536;-67
2024/04/13 00:30:35;;;;;;;11.00;7.30;;;;;;;12.86;70.33;101781.44;108667;1260;138902;-67
2024/04/13 00:33:02;;;;;;;12.70;7.40;;;;;;;12.76;70.52;101783.39;108715;1260;64949;-67
2024/04/13 00:35:29;;;;;;;12.10;7.60;;;;;;;12.67;70.55;101782.57;108685;1260;139281;-67
2024/04/13 00:37:55;;;;;;;13.40;6.90;;;;;;;12.60;70.74;101781.98;108787;1260;59808;-67
2024/04/13 00:40:22;;;;;;;11.60;6.80;;;;;;;12.54;70.81;101780.20;108797;1260;59799;-68
2024/04/13 00:42:48;;;;;;;11.40;6.40;;;;;;;12.52;70.93;101781.36;108704;1260;139244;-66
2024/04/13 00:45:15;;;;;;;10.70;6.00;;;;;;;12.50;71.11;101784.83;108808;1260;68022;-66
2024/04/13 00:47:42;;;;;;;12.40;7.50;;;;;;;12.50;71.16;101787.82;108710;1260;139266;-67
2024/04/13 00:50:11;;;;;;;11.60;6.00;;;;;;;12.52;71.28;101794.21;108705;1262;65993;-66
2024/04/13 00:52:40;;;;;;;11.10;6.40;;;;;;;12.51;71.22;101786.98;108706;1260;139252;-66
2024/04/13 00:55:06;;;;;;;12.70;5.80;;;;;;;12.49;71.13;101787.09;108798;1260;76822;-64
2024/04/13 00:57:33;;;;;;;8.90;5.90;;;;;;;12.49;71.13;101794.66;108795;1260;65550;-64
2024/04/13 01:00:00;;;;;;;12.60;6.20;;;;;;;12.47;71.06;101795.30;108519;1260;137866;-64
2024/04/13 01:02:28;;;;;;;8.50;5.60;;;;;;;12.43;71.02;101798.86;108790;1260;60388;-64
2024/04/13 01:04:54;;;;;;;13.30;5.30;;;;;;;12.38;71.00;101797.80;108695;1260;140246;-65
2024/04/13 01:07:21;;;;;;;10.50;5.70;;;;;;;12.33;70.93;101801.69;108815;1260;76521;-65
2024/04/13 01:09:47;;;;;;;10.70;6.00;;;;;;;12.29;71.00;101801.70;108814;1260;66946;-65
2024/04/13 01:12:14;;;;;;;13.80;5.50;;;;;;;12.23;71.04;101794.83;108670;1260;139527;-64
2024/04/13 01:14:41;;;;;;;8.90;4.50;;;;;;;12.19;71.16;101799.45;108711;1262;59792;-65
2024/04/13 01:17:07;;;;;;;9.30;5.10;;;;;;;12.16;71.14;101796.33;108700;1260;139482;-64
2024/04/13 01:19:35;;;;;;;10.30;5.40;;;;;;;12.12;71.18;101794.78;108816;1260;74339;-65
2024/04/13 01:22:02;;;;;;;8.50;5.40;;;;;;;12.06;71.21;101793.54;108794;1260;66177;-64
2024/04/13 01:24:28;;;;;;;11.10;6.00;;;;;;;12.02;71.28;101795.14;108666;1260;138854;-65
2024/04/13 01:26:55;;;;;;;8.10;4.80;;;;;;;11.98;71.30;101793.75;108714;1262;60113;-64
2024/04/13 01:29:22;;;;;;;8.90;4.50;;;;;;;11.93;71.28;101790.59;108662;1260;138774;-66
2024/04/13 01:31:49;;;;;;;9.80;4.50;;;;;;;11.87;71.29;101788.25;108787;1260;75209;-65
2024/04/13 01:34:15;;;;;;;6.60;3.90;;;;;;;11.82;71.30;101785.44;108800;1260;65227;-66
2024/04/13 01:36:42;;;;;;;4.80;3.80;;;;;;;11.77;71.45;101785.25;108687;1260;138056;-66
2024/04/13 01:39:12;;;;;;;10.00;3.80;;;;;;;11.72;71.45;101778.35;108801;1260;60022;-66
2024/04/13 01:41:40;;;;;;;10.60;3.90;;;;;;;11.66;71.58;101780.96;108709;1259;139363;-64
2024/04/13 01:44:06;;;;;;;7.90;3.90;;;;;;;11.62;71.60;101780.63;108690;1260;75973;-65
2024/04/13 01:46:34;;;;;;;6.80;3.90;;;;;;;11.59;71.73;101777.36;108585;1260;138806;-65
2024/04/13 01:49:04;;;;;;;7.40;4.70;;;;;;;11.58;71.76;101782.78;108785;1260;71789;-64
2024/04/13 01:51:32;;;;;;;8.40;4.40;;;;;;;11.60;71.91;101784.42;108797;1260;60297;-64
2024/04/13 01:53:58;;;;;;;8.00;3.90;;;;;;;11.64;71.98;101785.81;108621;1267;138495;-66
2024/04/13 01:56:25;;;;;;;8.30;4.20;;;;;;;11.73;72.03;101788.60;108821;1260;76592;-66
2024/04/13 01:58:52;;;;;;;9.40;3.70;;;;;;;11.85;72.09;101785.02;108606;1260;138980;-66
2024/04/13 02:01:18;;;;;;;9.20;3.60;;;;;;;11.97;71.91;101777.73;108771;1260;72816;-65
2024/04/13 02:03:45;;;;;;;5.70;3.00;;;;;;;12.09;71.81;101773.77;108777;1260;60031;-64
2024/04/13 02:06:12;;;;;;;6.50;2.90;;;;;;;12.19;71.75;101775.34;108650;1260;138906;-64
2024/04/13 02:08:38;;;;;;;8.10;3.10;;;;;;;12.30;71.72;101776.56;108800;1259;75637;-64
2024/04/13 02:11:08;;;;;;;6.10;2.70;;;;;;;12.38;71.51;101780.04;108603;1260;139582;-64
2024/04/13 02:13:34;;;;;;;5.80;3.20;;;;;;;12.46;71.43;101783.66;108808;1260;71601;-65
2024/04/13 02:16:01;;;;;;;5.20;2.90;;;;;;;12.53;71.37;101785.65;108831;1260;59768;-66
2024/04/13 02:18:28;;;;;;;7.60;3.20;;;;;;;12.59;71.33;101779.66;108696;1260;138466;-63
2024/04/13 02:20:57;;;;;;;7.40;3.50;;;;;;;12.62;71.22;101777.99;108755;1260;74391;-63
2024/04/13 02:23:23;;;;;;;7.60;3.50;;;;;;;12.64;71.21;101774.58;108691;1260;139101;-63
2024/04/13 02:25:50;;;;;;;4.10;2.90;;;;;;;12.68;71.16;101774.32;108782;1260;59997;-63
2024/04/13 02:28:17;;;;;;;8.20;3.20;;;;;;;12.70;71.07;101769.97;108739;1260;59819;-63
2024/04/13 02:30:43;;;;;;;5.60;2.90;;;;;;;12.72;71.13;101773.42;108548;1260;232481;-63
2024/04/13 02:33:10;;;;;;;10.50;3.20;;;;;;;12.75;71.08;101774.72;108801;1260;60543;-63
2024/04/13 02:35:36;;;;;;;10.40;4.10;;;;;;;12.75;71.00;101765.75;108725;1260;138842;-64
2024/04/13 02:38:03;;;;;;;6.10;3.20;;;;;;;12.75;71.10;101767.50;108758;1260;72660;-64
2024/04/13 02:40:30;;;;;;;7.80;3.60;;;;;;;12.76;71.00;101755.76;108518;1259;139762;-63
2024/04/13 02:42:57;;;;;;;4.60;3.10;;;;;;;12.78;70.91;101751.77;108818;1260;59738;-64
2024/04/13 02:45:23;;;;;;;8.60;3.40;;;;;;;12.78;70.92;101747.19;108799;1260;76634;-64
2024/04/13 02:47:50;;;;;;;7.70;3.30;;;;;;;12.76;71.01;101735.67;108614;1260;137893;-64
2024/04/13 02:50:17;;;;;;;10.00;3.60;;;;;;;12.74;70.91;101734.38;108799;1260;73085;-64
2024/04/13 02:52:44;;;;;;;11.80;4.00;;;;;;;12.72;71.08;101740.83;108691;1260;138871;-65
2024/04/13 02:55:11;;;;;;;8.50;3.50;;;;;;;12.68;70.91;101745.46;108815;1260;60488;-65
2024/04/13 02:57:37;;;;;;;4.20;3.00;;;;;;;12.66;71.05;101745.74;108806;1260;76628;-65
2024/04/13 03:00:04;;;;;;;9.20;2.90;;;;;;;12.65;71.07;101759.09;108714;1259;138754;-65
2024/04/13 03:02:31;;;;;;;6.00;3.10;;;;;;;12.62;71.05;101760.75;108794;1260;72815;-64
2024/04/13 03:04:59;;;;;;;5.50;3.00;;;;;;;12.57;71.06;101753.04;108710;1260;139217;-65
2024/04/13 03:07:26;;;;;;;5.50;2.80;;;;;;;12.55;71.12;101748.55;108805;1260;59865;-65
2024/04/13 03:09:53;;;;;;;7.10;3.50;;;;;;;12.55;71.17;101741.15;108813;1260;74403;-66
2024/04/13 03:12:19;;;;;;;8.00;3.20;;;;;;;12.55;71.27;101741.86;108694;1263;138875;-65
2024/04/13 03:14:46;;;;;;;9.60;3.80;;;;;;;12.53;71.29;101741.62;108822;1260;72189;-66
2024/04/13 03:17:12;;;;;;;6.90;3.70;;;;;;;12.53;71.44;101751.82;108678;1260;139009;-66
2024/04/13 03:19:39;;;;;;;7.90;3.30;;;;;;;12.52;71.45;101744.42;108720;1260;60211;-66
2024/04/13 03:22:06;;;;;;;6.40;3.20;;;;;;;12.50;71.47;101750.84;108809;1259;75470;-66
2024/04/13 03:24:33;;;;;;;7.20;3.70;;;;;;;12.48;71.56;101747.44;108673;1259;139223;-66
2024/04/13 03:27:03;;;;;;;7.90;3.50;;;;;;;12.45;71.60;101745.77;108851;1259;72570;-66
2024/04/13 03:29:29;;;;;;;8.90;3.60;;;;;;;12.45;71.72;101743.30;108704;1260;138903;-65
2024/04/13 03:31:56;;;;;;;8.50;3.30;;;;;;;12.45;71.80;101740.84;108794;1259;60130;-64
2024/04/13 03:34:23;;;;;;;4.70;3.20;;;;;;;12.47;71.75;101745.64;108784;1260;77081;-64
2024/04/13 03:36:50;;;;;;;6.50;3.80;;;;;;;12.48;71.88;101744.29;108693;1260;138862;-64
2024/04/13 03:39:17;;;;;;;6.00;3.30;;;;;;;12.48;71.77;101747.43;108772;1260;72277;-64
2024/04/13 03:41:44;;;;;;;7.80;3.70;;;;;;;12.48;71.83;101747.28;108693;1260;138539;-64
2024/04/13 03:44:10;;;;;;;5.50;3.40;;;;;;;12.51;71.92;101747.54;108811;1260;59804;-64
2024/04/13 03:46:37;;;;;;;6.40;3.30;;;;;;;12.52;71.96;101743.86;108696;1260;139626;-65
2024/04/13 03:49:03;;;;;;;5.50;3.70;;;;;;;12.51;71.95;101747.37;108790;1260;65360;-64
2024/04/13 03:51:30;;;;;;;6.20;3.50;;;;;;;12.52;72.08;101750.73;108800;1260;70792;-64
2024/04/13 03:53:57;;;;;;;6.60;3.30;;;;;;;12.54;72.10;101756.11;108727;1260;138800;-65
2024/04/13 03:56:24;;;;;;;6.70;3.30;;;;;;;12.56;71.97;101762.49;108783;1260;61382;-64
2024/04/13 03:58:51;;;;;;;7.70;4.10;;;;;;;12.57;72.04;101767.27;108603;1262;138455;-65
2024/04/13 04:01:17;;;;;;;7.00;3.80;;;;;;;12.56;71.97;101766.02;108798;1262;64164;-64
2024/04/13 04:03:44;;;;;;;8.30;3.70;;;;;;;12.54;72.08;101765.07;108786;1260;70693;-64
2024/04/13 04:06:10;;;;;;;6.30;3.80;;;;;;;12.56;72.07;101771.84;108664;1261;137881;-65
2024/04/13 04:08:37;;;;;;;7.60;3.60;;;;;;;12.57;72.10;101773.96;108813;1260;59838;-64
2024/04/13 04:11:03;;;;;;;7.20;3.80;;;;;;;12.56;72.19;101770.59;108644;1260;138924;-63
2024/04/13 04:13:30;;;;;;;8.50;3.50;;;;;;;12.56;72.20;101773.42;108767;1260;67859;-63
2024/04/13 04:15:57;;;;;;;6.20;3.50;;;;;;;12.61;72.28;101776.73;108761;1260;71835;-64
2024/04/13 04:18:23;;;;;;;5.60;3.50;;;;;;;12.64;72.28;101776.86;108653;1260;139291;-64
2024/04/13 04:20:50;;;;;;;6.30;3.70;;;;;;;12.59;72.17;101774.04;108755;1260;59800;-64
2024/04/13 04:23:16;;;;;;;7.80;3.30;;;;;;;12.58;72.23;101765.05;108622;1260;138889;-64
2024/04/13 04:25:43;;;;;;;5.60;2.90;;;;;;;12.60;72.38;101767.56;108810;1260;66064;-64
2024/04/13 04:28:11;;;;;;;6.50;3.10;;;;;;;12.64;72.31;101767.34;108709;1260;73849;-64
2024/04/13 04:30:38;;;;;;;4.30;3.10;;;;;;;12.66;72.19;101762.98;108675;1260;139043;-65
2024/04/13 04:33:04;;;;;;;6.50;2.80;;;;;;;12.69;72.34;101763.12;108797;1260;60249;-64
2024/04/13 04:35:31;;;;;;;5.90;3.30;;;;;;;12.69;72.18;101762.23;108715;1260;138870;-65
2024/04/13 04:37:58;;;;;;;5.70;2.80;;;;;;;12.72;72.17;101764.06;108813;1259;65211;-66
2024/04/13 04:40:25;;;;;;;7.70;3.90;;;;;;;12.75;72.26;101768.91;108807;1259;72009;-65
2024/04/13 04:42:51;;;;;;;5.10;3.00;;;;;;;12.73;72.01;101765.34;108607;1260;138405;-65
2024/04/13 04:45:18;;;;;;;6.80;3.30;;;;;;;12.71;72.03;101762.64;108828;1260;60257;-64
2024/04/13 04:47:47;;;;;;;5.90;2.90;;;;;;;12.71;72.06;101761.56;108617;1260;138562;-64
2024/04/13 04:50:13;;;;;;;5.70;3.10;;;;;;;12.71;72.07;101762.29;108800;1260;64289;-65
2024/04/13 04:52:40;;;;;;;8.10;2.80;;;;;;;12.71;72.00;101756.81;108682;1260;138677;-65
2024/04/13 04:55:06;;;;;;;4.20;2.50;;;;;;;12.72;71.97;101759.48;108781;1260;60085;-65
2024/04/13 04:57:33;;;;;;;4.80;2.90;;;;;;;12.76;71.97;101750.45;108761;1260;60050;-65
2024/04/13 05:00:00;;;;;;;3.40;1.70;;;;;;;12.82;72.00;101745.73;108671;1259;138777;-65
2024/04/13 05:02:27;;;;;;;3.20;1.70;;;;;;;12.88;71.86;101746.23;108724;1260;67239;-65
2024/04/13 05:04:59;;;;;;;2.70;1.80;;;;;;;12.94;71.73;101753.16;108680;1260;138986;-64
2024/04/13 05:07:38;;;;;;;2.20;1.50;;;;;;;12.99;71.62;101761.42;108611;1260;59913;-64
2024/04/13 05:10:08;;;;;;;1.90;1.30;;;;;;;13.01;71.28;101764.12;108792;1260;61678;-64
2024/04/13 05:12:35;;;;;;;4.00;1.40;;;;;;;12.96;71.03;101775.76;108596;1260;138055;-65
2024/04/13 05:15:02;;;;;;;2.70;1.40;;;;;;;12.92;71.03;101781.27;108828;1260;64930;-65
2024/04/13 05:17:29;;;;;;;1.40;1.20;;;;;;;12.94;71.04;101780.96;108703;1260;138361;-65
2024/04/13 05:19:55;;;;;;;3.00;1.30;;;;;;;12.92;70.86;101780.75;108781;1260;61182;-64
2024/04/13 05:22:22;;;;;;;1.40;1.20;;;;;;;12.86;70.71;101782.66;108775;1260;59832;-65
2024/04/13 05:24:48;;;;;;;2.10;1.20;;;;;;;12.87;71.01;101785.34;108651;1264;139173;-65
2024/04/13 05:27:16;;;;;;;1.90;1.20;;;;;;;12.93;70.89;101789.23;108753;1261;67312;-65
2024/04/13 05:29:42;;;;;;;2.60;1.30;;;;;;;12.95;70.79;101792.29;108704;1260;139396;-65
2024/04/13 05:32:09;;;;;;;2.10;1.20;;;;;;;12.99;70.95;101796.80;108777;1260;59846;-65
2024/04/13 05:34:36;;;;;;;4.20;1.20;;;;;;;13.07;70.92;101800.77;108674;1260;138139;-66
2024/04/13 05:37:02;;;;;;;1.40;1.10;;;;;;;13.13;70.83;101793.74;108767;1260;75384;-65
2024/04/13 05:39:29;;;;;;;6.70;2.10;;;;;;;13.19;70.76;101788.65;108784;1260;65806;-65
2024/04/13 05:41:56;;;;;;;2.40;1.40;;;;;;;13.27;70.63;101797.33;108625;1260;138323;-65
2024/04/13 05:44:22;;;;;;;4.70;1.80;;;;;;;13.30;70.39;101800.81;108783;1260;60179;-65
2024/04/13 05:46:50;;;;;;;1.70;1.30;;;;;;;13.32;70.45;101801.58;108738;1260;138487;-65
2024/04/13 05:49:17;;;;;;;3.50;1.80;;;;;;;13.35;70.38;101800.27;108728;1263;76621;-64
2024/04/13 05:51:45;;;;;;;3.00;1.70;;;;;;;13.38;70.39;101799.13;108782;1260;64033;-65
2024/04/13 05:54:12;;;;;;;2.00;1.40;;;;;;;13.39;70.25;101794.21;108663;1260;138776;-65
2024/04/13 05:56:38;;;;;;;4.00;1.50;;;;;;;13.42;70.36;101798.71;108821;1260;59762;-66
2024/04/13 05:59:05;;;;;;;3.80;1.40;;;;;;;13.48;70.30;101805.95;108684;1260;138325;-64
2024/04/13 06:01:31;;;;;;;2.10;1.60;;;;;;;13.52;70.08;101809.42;108749;1260;74034;-64
2024/04/13 06:03:58;;;;;;;1.50;1.30;;;;;;;13.52;69.85;101807.98;108705;1260;65705;-64
2024/04/13 06:06:25;;;;;;;2.50;1.60;;;;;;;13.53;69.88;101815.98;108672;1260;138322;-64
2024/04/13 06:08:51;;;;;;;2.10;1.40;;;;;;;13.54;69.77;101813.70;108744;1260;60128;-64
2024/04/13 06:11:18;;;;;;;3.80;1.50;;;;;;;13.59;69.82;101808.04;108670;1260;138371;-64
2024/04/13 06:13:45;;;;;;;2.20;1.40;;;;;;;13.68;69.85;101799.45;108784;1260;75672;-65
2024/04/13 06:16:11;;;;;;;2.00;1.50;;;;;;;13.77;69.61;101805.20;108819;1260;67344;-65
2024/04/13 06:18:38;;;;;;;2.90;1.30;;;;;;;13.84;69.50;101802.58;108624;1260;137823;-65
2024/04/13 06:21:05;;;;;;;2.70;1.40;;;;;;;13.93;69.51;101800.89;108823;1260;59741;-64
2024/04/13 06:23:32;;;;;;;2.00;1.30;;;;;;;14.00;69.23;101802.33;108668;1260;139023;-64
2024/04/13 06:25:58;;;;;;;2.60;2.20;;;;;;;14.08;69.22;101791.41;108711;1260;75857;-64
2024/04/13 06:28:26;;;;;;;3.50;2.50;;;;;;;14.21;69.08;101793.34;108694;1260;66874;-64
2024/04/13 06:30:53;;;;;;;1.90;1.70;;;;;;;14.28;68.86;101788.95;108659;1260;138847;-64
2024/04/13 06:33:19;;;;;;;5.40;1.70;;;;;;;14.38;68.68;101797.88;108761;1260;59681;-64
2024/04/13 06:35:50;;;;;;;2.90;1.60;;;;;;;14.44;68.45;101802.60;108726;1260;138094;-65
2024/04/13 06:38:35;;;;;;;2.20;1.50;;;;;;;14.51;68.35;101794.86;108760;1261;75720;-64
2024/04/13 06:41:01;;;;;;;4.00;2.10;;;;;;;14.65;68.33;101787.11;108645;1260;138849;-64
2024/04/13 06:43:28;;;;;;;2.80;1.90;;;;;;;14.77;68.08;101787.23;108736;1260;73487;-65
2024/04/13 06:45:54;;;;;;;3.30;1.50;;;;;;;14.92;67.91;101798.18;108739;1260;59720;-62
2024/04/13 06:48:21;;;;;;;2.10;1.10;;;;;;;15.09;67.68;101797.70;108655;1260;138489;-62
2024/04/13 06:50:47;;;;;;;2.40;1.20;;;;;;;15.22;67.38;101795.70;108793;1261;75140;-63
2024/04/13 06:53:15;;;;;;;2.20;1.80;;;;;;;15.35;67.15;101803.41;108547;1260;139056;-63
2024/04/13 06:55:41;;;;;;;2.20;1.20;;;;;;;15.47;66.87;101800.84;108738;1260;71620;-63
2024/04/13 06:58:08;;;;;;;1.80;1.20;;;;;;;15.56;66.67;101795.75;108732;1265;60200;-63
2024/04/13 07:00:35;;;;;;;2.70;1.50;;;;;;;15.71;66.62;101780.83;108686;1260;138769;-62
2024/04/13 07:03:02;;;;;;;2.10;1.30;;;;;;;15.88;66.34;101770.93;108742;1260;75846;-62
2024/04/13 07:05:29;;;;;;;1.50;1.20;;;;;;;16.07;66.14;101776.27;108691;1260;138133;-63
2024/04/13 07:07:56;;;;;;;2.40;1.40;;;;;;;16.26;65.69;101773.61;108783;1260;73134;-62
2024/04/13 07:10:22;;;;;;;3.40;1.30;;;;;;;16.35;65.33;101768.96;108819;1260;59990;-62
2024/04/13 07:12:49;;;;;;;4.70;1.30;;;;;;;16.43;65.21;101768.75;108672;1260;137878;-62
2024/04/13 07:15:16;;;;;;;2.10;1.30;;;;;;;16.48;64.93;101778.59;108823;1260;74337;-62
2024/04/13 07:17:42;;;;;;;2.80;1.80;;;;;;;16.46;64.62;101784.05;108581;1260;137946;-64
2024/04/13 07:20:09;;;;;;;2.50;1.50;;;;;;;16.41;64.47;101785.19;108728;1260;72870;-63
2024/04/13 07:22:35;;;;;;;1.60;1.50;;;;;;;16.41;64.48;101796.19;108586;1262;138625;-64
2024/04/13 07:25:03;;;;;;;3.30;1.70;;;;;;;16.44;64.19;101798.88;108670;1265;60143;-64
2024/04/13 07:27:29;;;;;;;2.70;1.80;;;;;;;16.45;64.19;101810.41;108729;1260;75655;-63
2024/04/13 07:29:56;;;;;;;3.40;1.70;;;;;;;16.42;63.86;101810.02;108663;1260;138090;-63
2024/04/13 07:32:22;;;;;;;2.20;1.70;;;;;;;16.39;63.89;101808.90;108650;1260;71541;-64
2024/04/13 07:34:49;;;;;;;1.80;1.40;;;;;;;16.45;64.10;101808.13;108629;1260;138283;-63
2024/04/13 07:37:15;;;;;;;2.30;1.50;;;;;;;16.51;63.84;101802.91;108798;1260;59801;-63
2024/04/13 07:39:42;;;;;;;2.80;2.00;;;;;;;16.49;63.67;101809.77;108790;1260;76322;-63
2024/04/13 07:42:08;;;;;;;2.50;2.00;;;;;;;16.46;63.53;101805.30;108692;1260;138900;-63
2024/04/13 07:44:35;;;;;;;3.10;2.20;;;;;;;16.46;63.57;101803.89;108794;1260;72724;-63
2024/04/13 07:47:02;;;;;;;3.00;2.20;;;;;;;16.38;63.31;101811.36;108667;1260;139452;-62
2024/04/13 07:49:28;;;;;;;3.30;2.60;;;;;;;16.23;63.29;101813.02;108691;1261;60733;-63
2024/04/13 07:51:55;;;;;;;4.40;3.10;;;;;;;16.16;63.54;101805.98;108831;1260;76336;-63
2024/04/13 07:54:22;;;;;;;6.20;3.50;;;;;;;16.21;63.64;101810.86;108759;1260;139992;-63
2024/04/13 07:56:48;;;;;;;5.80;3.10;;;;;;;16.23;63.40;101804.51;108809;1260;59767;-63
2024/04/13 07:59:15;;;;;;;5.60;3.70;;;;;;;16.21;63.42;101811.59;108658;1260;138759;-66
2024/04/13 08:01:42;;;;;;;6.50;4.00;;;;;;;16.19;63.40;101807.82;108786;1260;60297;-64
2024/04/13 08:04:08;;;;;;;6.50;3.70;;;;;;;16.23;63.45;101797.09;108750;1260;76154;-64
2024/04/13 08:06:36;;;;;;;7.50;3.70;;;;;;;16.39;63.63;101795.61;108694;1260;138444;-64
2024/04/13 08:09:03;;;;;;;6.40;4.40;;;;;;;16.54;63.31;101790.02;108821;1260;70749;-64
2024/04/13 08:11:29;;;;;;;6.90;4.30;;;;;;;16.55;63.07;101785.26;108579;1260;138733;-64
2024/04/13 08:13:56;;;;;;;8.90;4.50;;;;;;;16.58;63.16;101779.10;108761;1260;59812;-64
2024/04/13 08:16:23;;;;;;;6.70;4.50;;;;;;;16.64;63.04;101779.02;108784;1260;75701;-64
2024/04/13 08:18:49;;;;;;;13.40;6.10;;;;;;;16.72;63.00;101780.22;108688;1260;138207;-64
2024/04/13 08:21:16;;;;;;;11.90;6.10;;;;;;;16.84;62.84;101776.17;108815;1260;70650;-65
2024/04/13 08:23:43;;;;;;;9.30;5.80;;;;;;;16.96;62.71;101776.19;108589;1260;139033;-65
2024/04/13 08:26:10;;;;;;;9.60;5.30;;;;;;;17.02;62.64;101783.91;108768;1260;60359;-65
2024/04/13 08:28:36;;;;;;;8.70;4.90;;;;;;;17.09;62.54;101798.74;108592;1260;138163;-64
2024/04/13 08:31:04;;;;;;;8.50;4.80;;;;;;;17.13;62.36;101803.77;108745;1260;66432;-65
2024/04/13 08:33:31;;;;;;;9.60;5.20;;;;;;;17.23;62.42;101804.08;108809;1260;72919;-65
2024/04/13 08:36:08;;;;;;;7.40;5.00;;;;;;;17.27;62.18;101808.02;108688;1260;138265;-65
2024/04/13 08:38:35;;;;;;;8.70;5.80;;;;;;;17.24;62.00;101810.83;108804;1260;59981;-65
2024/04/13 08:41:21;;;;;;;7.50;4.90;;;;;;;17.24;62.01;101805.52;108542;1260;138704;-65
2024/04/13 08:43:47;;;;;;;10.00;4.90;;;;;;;17.22;61.64;101800.35;108704;1260;66440;-66
2024/04/13 08:46:14;;;;;;;11.30;4.80;;;;;;;17.15;61.51;101797.58;108818;1259;72121;-66
2024/04/13 08:48:41;;;;;;;8.10;4.80;;;;;;;17.09;61.59;101798.92;108706;1262;138636;-66
2024/04/13 08:51:09;;;;;;;10.00;4.60;;;;;;;17.12;61.49;101795.40;108706;1260;60197;-66
2024/04/13 08:53:39;;;;;;;8.90;4.70;;;;;;;17.16;61.41;101805.21;108452;1268;138219;-66
2024/04/13 08:56:05;;;;;;;8.30;4.70;;;;;;;17.17;61.50;101813.74;108728;1259;65848;-66
2024/04/13 08:58:34;;;;;;;8.40;4.40;;;;;;;17.30;61.39;101819.80;108597;1260;139919;-67
2024/04/13 09:01:01;;;;;;;9.10;4.70;;;;;;;17.41;61.10;101815.69;108793;1260;59933;-66
2024/04/13 09:03:27;;;;;;;6.80;4.50;;;;;;;17.43;61.02;101817.50;108732;1260;61632;-67
2024/04/13 09:05:54;;;;;;;8.00;4.20;;;;;;;17.55;61.03;101812.67;108649;1260;138562;-66
2024/04/13 09:08:22;;;;;;;7.80;4.50;;;;;;;17.65;60.76;101810.15;108789;1259;66597;-66
2024/04/13 09:10:51;;;;;;;16.90;5.00;;;;;;;17.68;60.57;101810.53;108619;1260;138443;-65
2024/04/13 09:13:17;;;;;;;6.50;4.50;;;;;;;17.57;60.41;101814.83;108713;1260;59801;-65
2024/04/13 09:15:44;;;;;;;10.50;4.80;;;;;;;17.56;60.72;101820.31;108729;1260;59722;-65
2024/04/13 09:18:11;;;;;;;18.00;4.70;;;;;;;17.62;60.65;101808.34;108720;1260;138222;-65
2024/04/13 09:20:38;;;;;;;20.80;5.60;;;;;;;17.68;60.52;101803.44;108802;1260;65825;-64
2024/04/13 09:23:05;;;;;;;17.50;5.60;;;;;;;17.82;60.49;101804.34;108686;1260;138303;-64
2024/04/13 09:25:32;;;;;;;20.10;5.30;;;;;;;17.96;60.22;101812.15;108743;1260;60055;-66
2024/04/13 09:28:02;;;;;;;12.70;5.00;;;;;;;18.01;59.84;101814.16;108819;1260;61075;-65
2024/04/13 09:30:28;;;;;;;9.90;5.70;;;;;;;18.04;59.90;101812.42;108698;1260;138342;-66
2024/04/13 09:33:08;;;;;;;9.00;6.20;;;;;;;18.14;59.79;101805.61;108800;1260;66482;-65
2024/04/13 09:35:35;;;;;;;10.20;5.60;;;;;;;18.33;59.78;101803.13;108676;1260;138135;-65
2024/04/13 09:38:01;;;;;;;11.40;5.70;;;;;;;18.61;59.47;101797.52;108735;1260;59806;-66
2024/04/13 09:40:30;;;;;;;10.90;4.30;;;;;;;18.90;59.41;101798.48;108686;1261;59871;-66
2024/04/13 09:42:58;;;;;;;9.40;4.50;;;;;;;19.23;59.01;101794.09;108645;1260;76208;-64
2024/04/13 09:45:26;;;;;;;7.80;4.00;;;;;;;19.38;58.43;101800.77;108681;1260;65618;-66
2024/04/13 09:47:55;;;;;;;7.80;3.60;;;;;;;19.39;57.95;101800.23;108519;1261;138334;-64
2024/04/13 09:50:22;;;;;;;7.80;3.60;;;;;;;19.26;57.48;101793.75;108757;1260;59821;-65
2024/04/13 09:52:48;;;;;;;8.50;3.70;;;;;;;19.15;57.57;101799.56;108620;1265;138710;-64
2024/04/13 09:55:15;;;;;;;6.40;3.60;;;;;;;19.18;57.42;101804.91;108791;1260;76656;-65
2024/04/13 09:57:42;;;;;;;8.10;3.50;;;;;;;19.17;57.35;101809.02;108706;1260;66471;-67
2024/04/13 10:00:09;;;;;;;8.20;4.10;;;;;;;19.17;57.23;101809.53;108670;1260;138100;-63
2024/04/13 10:02:36;;;;;;;8.10;3.80;;;;;;;19.12;56.92;101805.58;108634;1260;59816;-64
2024/04/13 10:05:03;;;;;;;11.80;4.30;;;;;;;19.02;56.82;101814.41;108646;1260;138331;-63
2024/04/13 10:07:29;;;;;;;9.20;4.20;;;;;;;18.95;56.88;101812.05;108817;1260;74647;-64
2024/04/13 10:09:59;;;;;;;7.20;3.80;;;;;;;18.86;56.90;101802.91;108662;1260;67664;-64
2024/04/13 10:12:28;;;;;;;7.80;4.70;;;;;;;18.93;57.16;101803.85;108711;1262;138516;-65
2024/04/13 10:14:56;;;;;;;7.80;3.90;;;;;;;19.04;57.24;101797.17;108793;1260;60461;-64
2024/04/13 10:17:22;;;;;;;13.00;6.10;;;;;;;19.30;57.38;101792.17;108694;1259;137897;-64
2024/04/13 10:19:49;;;;;;;9.30;5.00;;;;;;;19.55;57.04;101790.52;108714;1260;75665;-64
2024/04/13 10:22:15;;;;;;;44.00;16.10;;;;;;;19.67;56.75;101785.58;108807;1260;65346;-64
2024/04/13 10:24:44;;;;;;;20.30;9.00;;;;;;;19.77;56.58;101777.28;108737;1260;138965;-64
2024/04/13 10:27:12;;;;;;;30.70;12.00;;;;;;;19.94;56.32;101776.09;108815;1260;59911;-64
2024/04/13 10:29:44;;;;;;;9.40;4.30;;;;;;;20.16;56.11;101765.45;108698;1260;138489;-64
2024/04/13 10:32:16;;;;;;;25.00;11.30;;;;;;;20.42;55.96;101758.88;108722;1260;75717;-64
2024/04/13 10:34:43;;;;;;;29.80;10.80;;;;;;;20.57;55.51;101756.39;108601;1260;139148;-64
2024/04/13 10:37:40;;;;;;;10.60;4.60;;;;;;;20.69;55.22;101755.86;108755;1260;72050;-64
2024/04/13 10:40:07;;;;;;;8.00;4.30;;;;;;;20.72;54.71;101749.80;108814;1260;59743;-64
2024/04/13 10:42:38;;;;;;;7.40;3.60;;;;;;;20.64;54.56;101753.02;108749;1260;138828;-63
2024/04/13 10:45:17;;;;;;;7.60;3.40;;;;;;;20.52;54.25;101752.64;108785;1260;74615;-64
2024/04/13 10:47:44;;;;;;;20.50;8.50;;;;;;;20.49;54.33;101747.83;108706;1260;138290;-63
2024/04/13 10:50:15;;;;;;;11.00;4.70;;;;;;;20.64;54.60;101744.63;108792;1260;72669;-62
2024/04/13 10:52:42;;;;;;;5.60;3.00;;;;;;;20.70;54.58;101749.63;108587;1260;138321;-64
2024/04/13 10:55:12;;;;;;;5.70;3.50;;;;;;;20.72;54.22;101749.09;108729;1263;60711;-63
2024/04/13 10:57:40;;;;;;;7.10;4.30;;;;;;;20.65;54.07;101756.58;108774;1259;76098;-64
2024/04/13 11:00:08;;;;;;;6.90;3.20;;;;;;;20.66;54.18;101759.08;108624;1263;137979;-63
2024/04/13 11:02:37;;;;;;;7.90;3.10;;;;;;;20.77;54.15;101756.39;108648;1260;73699;-64
2024/04/13 11:05:05;;;;;;;7.00;3.80;;;;;;;21.01;54.28;101755.83;108683;1265;139156;-64
2024/04/13 11:07:31;;;;;;;5.80;2.80;;;;;;;21.23;54.01;101760.92;108720;1260;61700;-64
2024/04/13 11:09:58;;;;;;;7.70;4.20;;;;;;;21.43;53.81;101752.84;108793;1263;75432;-63
2024/04/13 11:12:24;;;;;;;6.40;3.20;;;;;;;21.53;53.36;101748.35;108514;1267;138496;-64